Lum, Michigan
Current Conditions -  °F | °C
As of 3:53 AM on Friday 28 Nov 2014 (Local Time) from KD95 Reporting Station
Scattered Clouds Scattered Clouds  
Wind Chill:   Ceiling: Unl
Heat Index: 18°   Visibility: 10mi
Dew Point:   Wind: 7mph
Humidity: 67%   Direction: 290°WNW
Pressure: 30.32"   Gusts: NA
Location:  43.0581°N, 83.167°W
Report Text: KD95 280853Z AUTO 29006KT 10SM SCT032 M08/M13 A3032 RMK AO2 T10771129
Loading
Personal Weather Stations






























Interactive Weather Map New forecast layout! Learn more

10-Day Weather Forecast

Advertisements
Track Severe Weather on mobile